Latest Weather Observations for Toolara

IDQ60801

Issued at 12:35 pm EST Thursday 23 October 2014 (issued every 30 minutes, with the page automatically refreshed every 10 minutes)

About weather observations | Map of weather stations | Latest weather observations for QLD | Other Formats
Station Details ID: 040555 Name: TOOLARA (KELLY) Lat: -25.97 Lon: 152.86 Height: 143.0 m
Data from the previous 72 hours. | See also: Recent months at Toolara
Date/Time
EST
Temp
°C
App
Temp
°C
Dew
Point
Rel
Hum
%
Delta-T
°C
Wind Press
QNH
hPa
Press
MSL
hPa
Rain
since 9 am
mm
Dir
 
Spd
km/h
Gust
km/h
Spd
kts
Gust
kts
23/12:30pm 27.7 26.4 12.5 39 8.9 - 11 15 6 8 - - -
23/12:00pm 26.7 25.2 12.0 40 8.5 - 11 19 6 10 - - -
23/11:30am 26.6 - 13.3 43 7.9 - - - - - - - -
23/11:00am 25.1 - 13.3 48 6.9 - - - - - - - -
23/10:30am 23.0 - 12.6 52 6.0 - - - - - - - -
23/10:00am 23.8 - 12.8 50 6.4 - - - - - - - -
23/09:30am 23.4 - 13.8 54 5.6 - - - - - - - -
23/09:00am 23.1 - 14.1 57 5.3 - - - - - - - 0.4
23/08:30am 22.1 - 14.7 63 4.4 - - - - - - - -
23/08:00am 19.5 - 13.7 69 3.3 - - - - - - - -
23/07:30am 18.2 - 14.3 78 2.3 - - - - - - - -
23/07:00am 16.1 - 13.0 82 1.7 - - - - - - - -
23/06:30am 14.9 - 12.2 84 1.5 - - - - - - - -
23/06:00am 14.6 13.0 11.7 83 1.6 - 11 13 6 7 - - -
23/05:30am 14.7 - 11.8 83 1.6 - - - - - - - -
23/05:00am 14.7 - 11.8 83 1.6 - - - - - - - -
23/04:30am 15.0 - 12.0 82 1.6 - - - - - - - -
23/04:00am 14.8 - 11.8 82 1.6 - - - - - - - -
23/03:30am 14.9 - 11.9 82 1.6 - - - - - - - -
23/03:00am 14.8 - 11.8 82 1.6 - - - - - - - 0.0
23/02:30am 14.8 - 11.6 81 1.7 - - - - - - - -
23/02:00am 15.4 - 11.6 78 2.1 - - - - - - - -
23/01:30am 15.6 - 12.0 79 2.0 - - - - - - - -
23/01:00am 15.4 - 11.8 79 2.0 - - - - - - - -
23/12:30am 15.4 - 11.8 79 2.0 - - - - - - - -
23/12:00am 15.5 - 12.1 80 1.9 - - - - - - - -
 
Date/Time
EST
Temp
°C
App
Temp
°C
Dew
Point
Rel
Hum
%
Delta-T
°C
Wind Press
QNH
hPa
Press
MSL
hPa
Rain
since 9 am
mm
Dir
 
Spd
km/h
Gust
km/h
Spd
kts
Gust
kts
22/11:30pm 15.7 - 11.9 78 2.1 - - - - - - - -
22/11:00pm 16.0 - 12.0 77 2.2 - - - - - - - -
22/10:30pm 16.1 - 12.1 77 2.2 - - - - - - - -
22/10:00pm 16.3 - 12.1 76 2.3 - - - - - - - -
22/09:30pm 16.3 - 11.9 75 2.4 - - - - - - - -
22/09:00pm 16.2 - 11.6 74 2.5 - - - - - - - 0.0
22/08:30pm 16.0 - 11.4 74 2.5 - - - - - - - -
22/08:00pm 16.0 - 11.0 72 2.7 - - - - - - - -
22/07:30pm 16.6 - 11.1 70 3.0 - - - - - - - -
22/07:00pm 16.8 - 10.9 68 3.2 - - - - - - - -
22/06:30pm 17.2 - 11.0 67 3.4 - - - - - - - -
22/06:00pm 17.9 - 11.0 64 3.8 - - - - - - - -
22/05:30pm 18.7 - 11.0 61 4.2 - - - - - - - -
22/05:00pm 19.2 - 11.0 59 4.5 - - - - - - - -
22/04:30pm 19.9 - 11.1 57 4.8 - - - - - - - -
22/04:00pm 21.0 - 11.3 54 5.4 - - - - - - - -
22/03:30pm 21.5 - 10.9 51 5.9 - - - - - - - -
22/03:00pm 22.0 - 11.7 52 5.8 - - - - - - - 0.4
22/02:30pm 23.2 - 12.5 51 6.1 - - - - - - - -
22/02:00pm 23.4 - 12.7 51 6.2 - - - - - - - -
22/01:30pm 22.0 - 11.1 50 6.1 - - - - - - - -
22/01:00pm 23.0 - 11.4 48 6.5 - - - - - - - -
22/12:30pm 22.7 - 11.4 49 6.4 - - - - - - - -
22/12:00pm 23.2 - 12.5 51 6.1 - - - - - - - -
22/11:30am 23.6 - 13.8 54 5.8 - - - - - - - -
22/11:00am 23.3 - 14.6 58 5.2 - - - - - - - -
22/10:30am 21.9 - 13.3 58 5.0 - - - - - - - -
22/10:00am 21.3 - 14.2 64 4.2 - - - - - - - -
22/09:30am 21.6 - 15.0 66 3.9 - - - - - - - -
22/09:00am 19.9 - 16.0 78 2.3 - - - - - - - 5.0
22/08:30am 19.1 - 16.3 84 1.7 - - - - - - - -
22/08:00am 18.5 - 18.3 99 0.1 - - - - - - - -
22/07:30am 16.6 - 16.6 100 0.0 - - - - - - - -
22/07:00am 15.9 - 15.9 100 0.0 - - - - - - - -
22/06:30am 15.5 - 15.5 100 0.0 - - - - - - - -
22/06:00am 15.1 - 15.1 100 0.0 - - - - - - - -
22/05:30am 15.2 - 15.2 100 0.0 - - - - - - - -
22/05:00am 15.3 - 15.3 100 0.0 - - - - - - - -
22/04:30am 15.4 - 15.4 100 0.0 - - - - - - - -
22/04:00am 15.4 - 15.4 100 0.0 - - - - - - - -
22/03:30am 15.5 - 15.5 100 0.0 - - - - - - - -
22/03:00am 15.7 - 15.7 100 0.0 - - - - - - - 1.0
22/02:30am 15.9 - 15.9 100 0.0 - - - - - - - -
22/02:00am 15.9 - 15.7 99 0.1 - - - - - - - -
22/01:30am 16.1 - 15.9 99 0.1 - - - - - - - -
22/01:00am 16.2 - 16.0 99 0.1 - - - - - - - -
22/12:30am 16.5 - 16.3 99 0.1 - - - - - - - -
22/12:00am 16.5 - 16.3 99 0.1 - - - - - - - -
 
Date/Time
EST
Temp
°C
App
Temp
°C
Dew
Point
Rel
Hum
%
Delta-T
°C
Wind Press
QNH
hPa
Press
MSL
hPa
Rain
since 9 am
mm
Dir
 
Spd
km/h
Gust
km/h
Spd
kts
Gust
kts
21/11:30pm 16.7 - 16.5 99 0.1 - - - - - - - -
21/11:00pm 16.9 - 16.6 98 0.2 - - - - - - - -
21/10:30pm 17.1 - 16.5 96 0.4 - - - - - - - -
21/10:00pm 17.2 - 16.6 96 0.4 - - - - - - - -
21/09:30pm 17.3 - 17.1 99 0.1 - - - - - - - -
21/09:00pm 17.4 - 16.9 97 0.3 - - - - - - - 3.0
21/08:30pm 17.3 - 17.1 99 0.1 - - - - - - - -
21/08:00pm 17.3 - 17.1 99 0.1 - - - - - - - -
21/07:30pm 17.5 - 17.3 99 0.1 - - - - - - - -
21/07:00pm 17.8 - 17.6 99 0.1 - - - - - - - -
21/06:30pm 17.7 - 17.5 99 0.1 - - - - - - - -
21/06:00pm 17.6 - 17.1 97 0.3 - - - - - - - -
21/05:30pm 18.0 - 17.0 94 0.6 - - - - - - - -
21/05:00pm 18.8 - 18.0 95 0.5 - - - - - - - -
21/04:30pm 18.8 - 17.8 94 0.6 - - - - - - - -
21/04:00pm 19.2 - 18.0 93 0.7 - - - - - - - -
21/03:30pm 19.1 - 17.4 90 1.0 - - - - - - - -
21/03:00pm 19.1 - 17.1 88 1.2 - - - - - - - 0.6
21/02:30pm 20.1 - 16.3 79 2.3 - - - - - - - -
21/02:00pm 21.3 - 17.5 79 2.4 - - - - - - - -
21/01:30pm 22.4 - 16.4 69 3.7 - - - - - - - -
21/01:00pm 22.0 - 16.7 72 3.2 - - - - - - - -
21/12:30pm 20.9 - 17.9 83 1.9 - - - - - - - -
21/12:00pm 19.7 - 14.5 72 3.0 - - - - - - - -
21/11:30am 22.1 - 14.2 61 4.6 - - - - - - - -
21/11:00am 23.8 - 14.5 56 5.5 - - - - - - - -
21/10:30am 22.8 - 14.4 59 5.0 - - - - - - - -
21/10:00am 22.6 - 14.4 60 4.8 - - - - - - - -
21/09:30am 22.7 - 14.3 59 5.0 - - - - - - - -
21/09:00am 21.6 - 14.0 62 4.4 - - - - - - - 0.0
21/08:30am 21.3 - 14.2 64 4.2 - - - - - - - -
21/08:00am 21.1 - 14.0 64 4.1 - - - - - - - -
21/07:30am 20.9 - 14.1 65 4.0 - - - - - - - -
21/07:00am 19.5 - 13.7 69 3.3 - - - - - - - -
21/06:30am 18.3 - 12.5 69 3.3 - - - - - - - -
21/06:00am 17.7 - 13.0 74 2.7 - - - - - - - -
21/05:30am 16.8 - 12.5 76 2.4 - - - - - - - -
21/05:00am 16.2 - 12.2 77 2.2 - - - - - - - -
21/04:30am 16.2 - 12.2 77 2.2 - - - - - - - -
21/04:00am 16.0 - 12.4 79 2.0 - - - - - - - -
21/03:30am 16.1 - 12.5 79 2.0 - - - - - - - -
21/03:00am 16.0 - 12.6 80 1.9 - - - - - - - 0.0
21/02:30am 15.9 - 12.5 80 1.9 - - - - - - - -
21/02:00am 16.2 - 12.6 79 2.0 - - - - - - - -
21/01:30am 16.5 - 12.7 78 2.1 - - - - - - - -
21/01:00am 16.4 - 12.8 79 2.0 - - - - - - - -
21/12:30am 16.7 - 12.8 78 2.2 - - - - - - - -
21/12:00am 17.0 - 13.1 78 2.2 - - - - - - - -
 
Date/Time
EST
Temp
°C
App
Temp
°C
Dew
Point
Rel
Hum
%
Delta-T
°C
Wind Press
QNH
hPa
Press
MSL
hPa
Rain
since 9 am
mm
Dir
 
Spd
km/h
Gust
km/h
Spd
kts
Gust
kts
20/11:30pm 16.8 - 12.9 78 2.2 - - - - - - - -
20/11:00pm 16.8 - 12.9 78 2.2 - - - - - - - -
20/10:30pm 16.8 - 12.9 78 2.2 - - - - - - - -
20/10:00pm 16.9 - 12.8 77 2.3 - - - - - - - -
20/09:30pm 17.2 - 12.9 76 2.4 - - - - - - - -
20/09:00pm 17.2 - 12.9 76 2.4 - - - - - - - 0.0
20/08:30pm 17.4 - 12.7 74 2.6 - - - - - - - -
20/08:00pm 17.5 - 12.4 72 2.8 - - - - - - - -
20/07:30pm 17.3 - 12.2 72 2.8 - - - - - - - -
20/07:00pm 17.4 - 11.7 69 3.1 - - - - - - - -
20/06:30pm 17.9 - 11.5 66 3.5 - - - - - - - -
20/06:00pm 18.7 - 11.0 61 4.2 - - - - - - - -
20/05:30pm 19.9 - 11.1 57 4.8 - - - - - - - -
20/05:00pm 20.9 - 11.0 53 5.5 - - - - - - - -
20/04:30pm 21.8 - 10.6 49 6.2 - - - - - - - -
20/04:00pm 22.8 - 10.6 46 6.8 - - - - - - - -
20/03:30pm 24.0 - 10.3 42 7.6 - - - - - - - -
20/03:00pm 24.7 - 9.8 39 8.2 - - - - - - - 0.0
20/02:30pm 26.2 - 10.8 38 8.7 - - - - - - - -
20/02:00pm 26.5 - 11.4 39 8.6 - - - - - - - -
20/01:30pm 26.4 - 11.7 40 8.5 - - - - - - - -
20/01:00pm 27.0 - 11.9 39 8.7 - - - - - - - -

Other Formats:

Comma delimited format used in spreadsheet applications
http://www.bom.gov.au/fwo/IDQ60801/IDQ60801.94558.axf

JavaScript Object Notation format (JSON) in row-major order
http://www.bom.gov.au/fwo/IDQ60801/IDQ60801.94558.json